createdAt,value
2019-05-13T00:01:09.337Z,68.6
2019-05-13T00:02:21.497Z,68.2
2019-05-13T00:03:33.593Z,67.4
2019-05-13T00:04:45.921Z,67.7
2019-05-13T00:05:57.947Z,69.5
2019-05-13T00:07:10.308Z,67.3
2019-05-13T00:08:22.502Z,67.4
2019-05-13T00:09:36.542Z,67.7
2019-05-13T00:10:46.815Z,68.1
2019-05-13T00:11:59.042Z,66.9
2019-05-13T00:13:11.280Z,67.2
2019-05-13T00:14:23.409Z,67.5
2019-05-13T00:15:35.718Z,67.8
2019-05-13T00:16:47.788Z,69.4
2019-05-13T00:17:59.891Z,68.2
2019-05-13T00:19:12.221Z,67.7
2019-05-13T00:20:24.368Z,66.9
2019-05-13T00:21:36.794Z,69.5
2019-05-13T00:22:48.755Z,69.5
2019-05-13T00:24:01.059Z,69.3
2019-05-13T00:25:13.148Z,67.8
2019-05-13T00:26:25.392Z,66.3
2019-05-13T00:27:37.599Z,68.7
2019-05-13T00:28:49.741Z,68.4
2019-05-13T00:30:01.876Z,69.4
2019-05-13T00:31:14.229Z,66.3
2019-05-13T00:32:26.327Z,67.5
2019-05-13T00:33:38.571Z,68
2019-05-13T00:34:50.729Z,67.6
2019-05-13T00:36:02.918Z,68.3
2019-05-13T00:37:15.247Z,69
2019-05-13T00:38:27.276Z,69
2019-05-13T00:39:39.425Z,69.5
2019-05-13T00:40:51.928Z,70.2
2019-05-13T00:42:03.892Z,69.5
2019-05-13T00:43:15.987Z,69.1
2019-05-13T00:44:28.298Z,71.2
2019-05-13T00:45:40.711Z,68
2019-05-13T00:46:52.622Z,69.2
2019-05-13T00:48:04.903Z,69
2019-05-13T00:49:17.205Z,67.5
2019-05-13T00:50:29.219Z,71.2
2019-05-13T00:51:41.426Z,70.5
2019-05-13T00:52:53.655Z,69.8
2019-05-13T00:54:05.757Z,68.4
2019-05-13T00:55:21.378Z,70.1
2019-05-13T00:56:30.241Z,69.7
2019-05-13T00:57:42.509Z,68.9
2019-05-13T00:58:54.635Z,68.9
2019-05-13T01:00:06.801Z,67.8
2019-05-13T01:01:19.071Z,69.7
2019-05-13T01:02:31.250Z,69.6
2019-05-13T01:03:43.338Z,70.6
2019-05-13T01:04:55.681Z,68.8
2019-05-13T01:06:07.829Z,68.9
2019-05-13T01:07:20.880Z,68.7
2019-05-13T01:08:32.194Z,68.1
2019-05-13T01:09:44.485Z,68.5
2019-05-13T01:10:56.569Z,68
2019-05-13T01:12:08.882Z,68.2
2019-05-13T01:13:20.949Z,66.9
2019-05-13T01:14:33.169Z,70.5
2019-05-13T01:15:45.271Z,69.6
2019-05-13T01:16:57.565Z,68.8
2019-05-13T01:18:09.664Z,69.3
2019-05-13T01:19:21.965Z,70.5
2019-05-13T01:20:34.200Z,67.3
2019-05-13T01:21:52.701Z,70.2
2019-05-13T01:22:58.516Z,70
2019-05-13T01:24:10.885Z,70.4
2019-05-13T01:25:22.957Z,68.2
2019-05-13T01:26:35.130Z,68.2
2019-05-13T01:27:47.528Z,69.1
2019-05-13T01:28:59.502Z,71.8
2019-05-13T01:30:11.642Z,68.2
2019-05-13T01:31:23.923Z,68.8
2019-05-13T01:32:36.177Z,68.3
2019-05-13T01:33:48.650Z,71.2
2019-05-13T01:35:00.498Z,71.7
2019-05-13T01:36:12.710Z,70.8
2019-05-13T01:37:25.007Z,69.8
2019-05-13T01:38:37.072Z,71.1
2019-05-13T01:39:49.189Z,70.5
2019-05-13T01:41:01.648Z,70.7
2019-05-13T01:42:13.658Z,71.9
2019-05-13T01:43:25.868Z,70.3
2019-05-13T01:44:38.261Z,72.1
2019-05-13T01:45:50.322Z,69.7
2019-05-13T01:47:02.452Z,70.3
2019-05-13T01:48:14.643Z,72.3
2019-05-13T01:49:26.853Z,69.8
2019-05-13T01:50:39.024Z,70.1
2019-05-13T01:51:51.132Z,71.6
2019-05-13T01:53:03.499Z,70.5
2019-05-13T01:54:15.542Z,71
2019-05-13T01:55:27.917Z,71.2
2019-05-13T01:56:40.000Z,71.1
2019-05-13T01:57:52.242Z,71.7
2019-05-13T01:59:04.374Z,71.8
2019-05-13T02:00:16.611Z,72.6
2019-05-13T02:01:28.888Z,70.8
2019-05-13T02:02:40.993Z,69.8
2019-05-13T02:03:53.091Z,70.1
2019-05-13T02:05:05.796Z,71
2019-05-13T02:06:17.468Z,72.4
2019-05-13T02:07:29.766Z,69
2019-05-13T02:08:41.966Z,69.8
2019-05-13T02:11:06.352Z,70.9
2019-05-13T02:12:18.572Z,71.3
2019-05-13T02:13:30.758Z,70.4
2019-05-13T02:15:55.126Z,73
2019-05-13T02:17:07.334Z,72.2
2019-05-13T02:18:19.520Z,71.5
2019-05-13T02:19:31.802Z,71.8
2019-05-13T02:23:08.292Z,70.9
2019-05-13T02:25:32.695Z,71.1
2019-05-13T02:27:57.097Z,72
2019-05-13T02:30:21.469Z,69.5
2019-05-13T02:31:33.798Z,72.9
2019-05-13T02:33:58.050Z,71.5
2019-05-13T02:35:12.400Z,70.4
2019-05-13T02:37:34.663Z,72.9
2019-05-13T02:38:46.858Z,73.8
2019-05-13T02:39:59.034Z,71.6
2019-05-13T02:41:11.215Z,70.4
2019-05-13T02:42:23.381Z,74
2019-05-13T02:45:59.965Z,71.8
2019-05-13T02:47:12.315Z,73.1
2019-05-13T02:48:24.545Z,72.2
2019-05-13T02:49:36.719Z,71.9
2019-05-13T02:50:48.812Z,71.4
2019-05-13T02:52:00.969Z,71
2019-05-13T02:53:13.147Z,71.3
2019-05-13T02:54:25.294Z,71.8
2019-05-13T02:55:37.599Z,72.1
2019-05-13T02:58:02.041Z,71.4
2019-05-13T02:59:14.231Z,71.6
2019-05-13T03:00:26.444Z,71.6
2019-05-13T03:02:50.763Z,72.4
2019-05-13T03:04:02.854Z,74.5
2019-05-13T03:06:27.249Z,74.3
2019-05-13T03:07:39.705Z,74.2
2019-05-13T03:10:04.060Z,73.2
2019-05-13T03:11:16.169Z,74
2019-05-13T03:13:40.544Z,72.4
2019-05-13T03:14:52.780Z,71.4
2019-05-13T03:16:04.884Z,71.3
2019-05-13T03:17:17.111Z,70.7
2019-05-13T03:18:29.226Z,71.6
2019-05-13T03:22:05.989Z,71.1
2019-05-13T03:23:18.064Z,70.5
2019-05-13T03:24:30.490Z,71
2019-05-13T03:25:42.715Z,73.1
2019-05-13T03:28:06.857Z,71.9
2019-05-13T03:29:19.138Z,72.3
2019-05-13T03:30:31.168Z,71.8
2019-05-13T03:31:43.485Z,71.8
2019-05-13T03:35:20.054Z,73.9
2019-05-13T03:36:32.293Z,74.2
2019-05-13T03:38:56.730Z,71.2
2019-05-13T03:40:08.783Z,71.1
2019-05-13T03:42:36.780Z,73
2019-05-13T03:43:45.313Z,73
2019-05-13T03:46:09.829Z,72.6
2019-05-13T03:47:22.024Z,74.7
2019-05-13T03:49:46.404Z,74.2
2019-05-13T03:50:58.664Z,74.3
2019-05-13T03:52:10.699Z,73.3
2019-05-13T03:53:23.092Z,72.4
2019-05-13T03:54:35.101Z,72.9
2019-05-13T03:58:11.712Z,74.4
2019-05-13T03:59:23.991Z,74.9
2019-05-13T04:00:36.150Z,74.3
2019-05-13T04:01:48.369Z,75
2019-05-13T04:04:12.639Z,74.4
2019-05-13T04:06:37.023Z,76.4
2019-05-13T04:07:49.298Z,75.8
2019-05-13T04:11:26.020Z,74.9
2019-05-13T04:12:38.456Z,75.7
2019-05-13T04:13:50.374Z,76.1
2019-05-13T04:15:02.533Z,76.3
2019-05-13T04:16:14.666Z,76.5
2019-05-13T04:18:38.987Z,75.8
2019-05-13T04:19:51.319Z,75.6
2019-05-13T04:22:15.711Z,76.8
2019-05-13T04:23:27.892Z,77
2019-05-13T04:24:40.040Z,75.4
2019-05-13T04:25:52.234Z,75.6
2019-05-13T04:27:04.597Z,76.8
2019-05-13T04:28:16.616Z,76.6
2019-05-13T04:29:28.814Z,76.4
2019-05-13T04:30:40.933Z,75.5
2019-05-13T04:34:17.599Z,74
2019-05-13T04:35:29.984Z,74.9
2019-05-13T04:36:42.036Z,76.1
2019-05-13T04:37:54.356Z,74.6
2019-05-13T04:39:06.679Z,74.1
2019-05-13T04:40:18.946Z,75.2
2019-05-13T04:41:30.828Z,74.7
2019-05-13T04:42:43.000Z,75
2019-05-13T04:43:55.158Z,73.3
2019-05-13T04:46:19.595Z,74.4
2019-05-13T04:47:31.706Z,76.1
2019-05-13T04:49:56.153Z,75.2
2019-05-13T04:52:21.291Z,76.9
2019-05-13T04:54:44.836Z,75.7
2019-05-13T04:55:57.187Z,75
2019-05-13T04:58:21.608Z,75
2019-05-13T04:59:33.669Z,75.7
2019-05-13T05:01:58.087Z,74.7
2019-05-13T05:04:22.431Z,74.4
2019-05-13T05:05:34.649Z,74.1
2019-05-13T05:06:46.780Z,73.6
2019-05-13T05:10:23.542Z,74.5
2019-05-13T05:11:35.603Z,72.3
2019-05-13T05:12:47.840Z,74.9
2019-05-13T05:14:00.153Z,73.7
2019-05-13T05:15:12.260Z,73.5
2019-05-13T05:16:24.446Z,74
2019-05-13T05:17:36.730Z,74.3
2019-05-13T05:18:48.838Z,74.8
2019-05-13T05:22:25.437Z,74.3
2019-05-13T05:23:37.695Z,73.5
2019-05-13T05:24:52.808Z,74.7
2019-05-13T05:26:01.886Z,74.1
2019-05-13T05:28:26.347Z,72.9
2019-05-13T05:30:50.649Z,72.5
2019-05-13T05:32:02.949Z,72.5
2019-05-13T05:34:27.365Z,74.2
2019-05-13T05:35:39.562Z,72.7
2019-05-13T05:38:03.956Z,72.1
2019-05-13T05:39:16.109Z,72
2019-05-13T05:40:28.367Z,73.1
2019-05-13T05:41:40.466Z,73.1
2019-05-13T05:42:52.693Z,73.1
2019-05-13T05:46:29.381Z,74.8
2019-05-13T05:47:41.405Z,73.6
2019-05-13T05:48:54.318Z,72.6
2019-05-13T05:50:05.799Z,72.2
2019-05-13T05:52:30.130Z,72.8
2019-05-13T05:53:42.390Z,73.5
2019-05-13T05:54:54.511Z,73.7
2019-05-13T05:56:06.963Z,72.5
2019-05-13T05:59:43.394Z,71
2019-05-13T06:00:55.632Z,70.7
2019-05-13T06:02:07.729Z,68
2019-05-13T06:03:19.960Z,69.2
2019-05-13T06:04:35.599Z,70.9
2019-05-13T06:06:56.462Z,71.5
2019-05-13T06:08:08.665Z,71.4
2019-05-13T06:10:33.513Z,71.2
2019-05-13T06:11:45.460Z,70.6
2019-05-13T06:15:21.959Z,69.1
2019-05-13T06:16:34.001Z,67.7
2019-05-13T06:18:58.506Z,67
2019-05-13T06:22:35.116Z,68.6
2019-05-13T06:23:47.159Z,66.3
2019-05-13T06:26:11.747Z,68.6
2019-05-13T06:27:23.821Z,65.8
2019-05-13T06:28:36.053Z,63.3
2019-05-13T06:29:48.244Z,63.9
2019-05-13T06:31:00.503Z,63.9
2019-05-13T06:32:12.691Z,64.8
2019-05-13T06:35:49.181Z,65.4
2019-05-13T06:40:38.463Z,64
2019-05-13T06:43:02.787Z,61.9
2019-05-13T06:44:14.643Z,64.3
2019-05-13T06:46:38.997Z,63.2
2019-05-13T06:47:51.278Z,61.8
2019-05-13T06:49:03.345Z,60.6
2019-05-13T06:50:15.441Z,60.1
2019-05-13T06:51:27.758Z,61.9
2019-05-13T06:52:39.920Z,64.4
2019-05-13T06:53:52.079Z,63.9
2019-05-13T06:55:04.195Z,62.8
2019-05-13T06:59:53.185Z,61
2019-05-13T07:01:05.229Z,62.4
2019-05-13T07:02:17.423Z,60.8
2019-05-13T07:04:41.845Z,60.9
2019-05-13T07:05:54.081Z,61.4
2019-05-13T07:07:06.146Z,61.5
2019-05-13T07:08:18.441Z,60.2
2019-05-13T07:11:54.967Z,57.9
2019-05-13T07:14:19.453Z,58.2
2019-05-13T07:15:31.669Z,59.2
2019-05-13T07:16:43.681Z,58.9
2019-05-13T07:19:08.062Z,59.4
2019-05-13T07:20:20.425Z,59.7
2019-05-13T07:23:56.897Z,57.2
2019-05-13T07:25:09.170Z,58
2019-05-13T07:27:33.626Z,55.9
2019-05-13T07:28:45.626Z,56.9
2019-05-13T07:31:10.016Z,55.2
2019-05-13T07:34:46.678Z,54.8
2019-05-13T07:35:58.952Z,54.9
2019-05-13T07:38:23.535Z,55.4
2019-05-13T07:40:47.605Z,55.1
2019-05-13T07:43:12.001Z,55.1
2019-05-13T07:46:48.538Z,51.5
2019-05-13T07:48:00.784Z,53
2019-05-13T07:49:12.909Z,54
2019-05-13T07:51:37.409Z,53.2
2019-05-13T07:52:49.559Z,53.4
2019-05-13T07:55:13.966Z,52.7
2019-05-13T07:56:26.138Z,48.5
2019-05-13T07:58:50.836Z,51.3
2019-05-13T08:02:27.065Z,52
2019-05-13T08:04:51.623Z,51.1
2019-05-13T08:07:15.967Z,49.8
2019-05-13T08:10:52.573Z,49.9
2019-05-13T08:12:04.693Z,50.7
2019-05-13T08:13:16.852Z,50.3
2019-05-13T08:14:29.112Z,50.8
2019-05-13T08:16:53.360Z,45.5
2019-05-13T08:18:05.631Z,49.7
2019-05-13T08:19:17.735Z,49.1
2019-05-13T08:20:30.154Z,51
2019-05-13T08:24:06.693Z,48.7
2019-05-13T08:25:18.783Z,47.4
2019-05-13T08:28:55.300Z,49.3
2019-05-13T08:30:07.489Z,47.3
2019-05-13T08:31:19.712Z,47.4
2019-05-13T08:32:31.882Z,44.8
2019-05-13T08:34:56.385Z,43.4
2019-05-13T08:36:08.637Z,47.6
2019-05-13T08:37:20.747Z,47.9
2019-05-13T08:39:47.022Z,45.7
2019-05-13T08:40:57.232Z,45.4
2019-05-13T08:42:09.520Z,44
2019-05-13T08:43:21.775Z,41.7
2019-05-13T08:46:58.221Z,43.1
2019-05-13T08:48:10.461Z,44.5
2019-05-13T08:49:22.769Z,42.2
2019-05-13T08:52:59.190Z,42.4
2019-05-13T08:54:11.579Z,45.3
2019-05-13T08:55:23.835Z,43.6
2019-05-13T09:00:12.467Z,44
2019-05-13T09:01:24.533Z,43.1
2019-05-13T09:05:01.167Z,41.5
2019-05-13T09:07:25.524Z,42.6
2019-05-13T09:08:38.171Z,42.3
2019-05-13T09:12:14.340Z,39
2019-05-13T09:17:03.055Z,40.7
2019-05-13T09:18:15.342Z,42.9
2019-05-13T09:19:27.542Z,44.1
2019-05-13T09:23:04.042Z,35.6
2019-05-13T09:24:16.250Z,37
2019-05-13T09:25:28.584Z,36.5
2019-05-13T09:26:40.668Z,41.7
2019-05-13T09:27:52.974Z,41
2019-05-13T09:29:04.997Z,40.9
2019-05-13T09:30:17.299Z,38.8
2019-05-13T09:31:29.394Z,40.4
2019-05-13T09:32:41.670Z,40
2019-05-13T09:36:18.320Z,35.4
2019-05-13T09:37:30.537Z,38
2019-05-13T09:38:42.671Z,33.4
2019-05-13T09:39:55.637Z,36.9
2019-05-13T09:41:06.953Z,39.6
2019-05-13T09:43:31.456Z,37.5
2019-05-13T09:44:43.931Z,39.3
2019-05-13T09:47:08.038Z,31.8
2019-05-13T09:48:20.181Z,37.8
2019-05-13T09:49:32.492Z,32.7
2019-05-13T09:50:44.543Z,39.7
2019-05-13T09:51:56.788Z,41.1
2019-05-13T09:53:08.900Z,36
2019-05-13T09:54:21.218Z,39.1
2019-05-13T09:55:33.320Z,34.2
2019-05-13T09:56:45.594Z,34.4
2019-05-13T09:57:57.812Z,39.5
2019-05-13T09:59:09.852Z,38.8
2019-05-13T10:00:22.133Z,38.9
2019-05-13T10:01:34.323Z,37.7
2019-05-13T10:02:46.511Z,30.1
2019-05-13T10:03:58.717Z,37.5
2019-05-13T10:05:10.821Z,37.8
2019-05-13T10:06:23.209Z,36.2
2019-05-13T10:07:35.217Z,37
2019-05-13T10:08:47.548Z,35.8
2019-05-13T10:09:59.747Z,38.3
2019-05-13T10:11:11.950Z,34.9
2019-05-13T10:12:24.095Z,37
2019-05-13T10:13:36.173Z,37.3
2019-05-13T10:14:51.271Z,33.7
2019-05-13T10:16:00.766Z,32.1
2019-05-13T10:17:12.811Z,36.1
2019-05-13T10:18:25.551Z,37.4
2019-05-13T10:19:37.369Z,37.1
2019-05-13T10:20:49.335Z,30.8
2019-05-13T10:22:01.665Z,36.9
2019-05-13T10:23:13.884Z,32.5
2019-05-13T10:24:25.984Z,32.6
2019-05-13T10:25:38.372Z,32.3
2019-05-13T10:26:50.416Z,36
2019-05-13T10:28:02.616Z,36.5
2019-05-13T10:29:14.737Z,37.6
2019-05-13T10:30:26.973Z,30.6
2019-05-13T10:31:39.105Z,31.9
2019-05-13T10:32:51.534Z,36.9
2019-05-13T10:34:03.667Z,35.6
2019-05-13T10:35:15.800Z,33.4
2019-05-13T10:36:27.980Z,33.4
2019-05-13T10:37:40.171Z,28.7
2019-05-13T10:38:52.382Z,27.8
2019-05-13T10:40:05.405Z,26.7
2019-05-13T10:41:16.801Z,34.1
2019-05-13T10:42:28.982Z,35.4
2019-05-13T10:43:41.143Z,35.9
2019-05-13T10:44:53.357Z,35.4
2019-05-13T10:46:05.618Z,33.5
2019-05-13T10:47:17.721Z,33
2019-05-13T10:48:29.868Z,34.8
2019-05-13T10:49:42.181Z,32.8
2019-05-13T10:50:54.339Z,32
2019-05-13T10:52:06.558Z,33.8
2019-05-13T10:53:18.667Z,31.9
2019-05-13T10:54:30.902Z,33.4
2019-05-13T10:55:43.037Z,33.1
2019-05-13T10:56:55.322Z,32.4
2019-05-13T10:58:07.475Z,28.7
2019-05-13T10:59:19.735Z,28.9
2019-05-13T11:00:31.953Z,34.3
2019-05-13T11:01:44.157Z,32.1
2019-05-13T11:02:56.282Z,28.8
2019-05-13T11:04:08.449Z,32
2019-05-13T11:05:20.629Z,33.2
2019-05-13T11:06:32.850Z,33
2019-05-13T11:07:44.924Z,30.6
2019-05-13T11:08:57.635Z,31.7
2019-05-13T11:10:09.501Z,32.4
2019-05-13T11:11:21.630Z,31.2
2019-05-13T11:12:33.818Z,29.9
2019-05-13T11:13:46.084Z,27.4
2019-05-13T11:14:58.230Z,32.6
2019-05-13T11:16:10.389Z,33.7
2019-05-13T11:17:22.552Z,32.4
2019-05-13T11:18:36.635Z,28
2019-05-13T11:19:46.875Z,35.9
2019-05-13T11:20:59.156Z,36.5
2019-05-13T11:22:11.384Z,33.5
2019-05-13T11:23:23.721Z,31.2
2019-05-13T11:24:35.754Z,28
2019-05-13T11:25:47.982Z,35
2019-05-13T11:27:00.181Z,33.1
2019-05-13T11:28:12.332Z,33.5
2019-05-13T11:29:24.450Z,32.4
2019-05-13T11:31:48.814Z,29.6
2019-05-13T11:33:02.239Z,29.1
2019-05-13T11:34:13.325Z,39.2
2019-05-13T11:35:25.550Z,36.8
2019-05-13T11:36:37.855Z,35.5
2019-05-13T11:37:51.474Z,35.3
2019-05-13T11:39:02.154Z,28.2
2019-05-13T11:40:14.371Z,29.9
2019-05-13T11:41:26.440Z,37.4
2019-05-13T11:42:38.715Z,34.2
2019-05-13T11:43:50.768Z,36.8
2019-05-13T11:45:03.049Z,40.2
2019-05-13T11:46:15.234Z,35.7
2019-05-13T11:47:27.546Z,39.9
2019-05-13T11:48:39.638Z,32.4
2019-05-13T11:49:51.995Z,34.6
2019-05-13T11:51:05.918Z,36.4
2019-05-13T11:52:21.165Z,37.5
2019-05-13T11:53:28.378Z,34.4
2019-05-13T11:54:40.679Z,30.5
2019-05-13T11:55:52.830Z,30
2019-05-13T11:57:05.016Z,32.8
2019-05-13T11:58:17.172Z,36
2019-05-13T11:59:29.477Z,35.6
2019-05-13T12:00:41.580Z,38.8
2019-05-13T12:01:54.157Z,38
2019-05-13T12:03:06.081Z,41.2
2019-05-13T12:04:18.287Z,41.2
2019-05-13T12:05:30.266Z,36.6
2019-05-13T12:06:42.620Z,41.4
2019-05-13T12:07:54.634Z,40
2019-05-13T12:09:06.968Z,38.4
2019-05-13T12:11:31.299Z,35.9
2019-05-13T12:12:43.497Z,37.7
2019-05-13T12:13:55.606Z,36.5
2019-05-13T12:15:08.075Z,36.3
2019-05-13T12:16:20.084Z,36.1
2019-05-13T12:17:32.342Z,33.3
2019-05-13T12:18:44.536Z,35.7
2019-05-13T12:19:56.554Z,31.2
2019-05-13T12:21:08.854Z,36.5
2019-05-13T12:22:21.067Z,36.3
2019-05-13T12:23:33.153Z,34.7
2019-05-13T12:24:45.443Z,39.2
2019-05-13T12:25:57.692Z,37.5
2019-05-13T12:27:09.844Z,36.9
2019-05-13T12:28:22.034Z,40.7
2019-05-13T12:29:34.143Z,38
2019-05-13T12:30:46.322Z,38.2
2019-05-13T12:31:58.502Z,39.7
2019-05-13T12:33:10.811Z,33.8
2019-05-13T12:34:23.061Z,31.4
2019-05-13T12:35:35.363Z,33.3
2019-05-13T12:36:47.599Z,32
2019-05-13T12:37:59.540Z,34.4
2019-05-13T12:39:11.938Z,32.8
2019-05-13T12:40:25.398Z,35
2019-05-13T12:41:36.114Z,38.6
2019-05-13T12:42:48.434Z,35.9
2019-05-13T12:44:00.489Z,34.8
2019-05-13T12:45:12.702Z,38.8
2019-05-13T12:46:25.171Z,37.8
2019-05-13T12:47:37.188Z,34.9
2019-05-13T12:48:49.273Z,39
2019-05-13T12:50:01.610Z,34.7
2019-05-13T12:51:13.812Z,36
2019-05-13T12:52:25.950Z,33
2019-05-13T12:53:37.987Z,38.5
2019-05-13T12:54:51.495Z,40.1
2019-05-13T12:56:06.172Z,33.3
2019-05-13T12:57:14.673Z,41.3
2019-05-13T12:58:26.848Z,38.8
2019-05-13T12:59:39.037Z,38.6
2019-05-13T13:00:51.236Z,40.2
2019-05-13T13:02:03.458Z,41.4
2019-05-13T13:03:16.186Z,39.6
2019-05-13T13:04:27.816Z,36.6
2019-05-13T13:05:40.227Z,37.9
2019-05-13T13:08:04.307Z,37.5
2019-05-13T13:09:16.599Z,38.5
2019-05-13T13:10:35.388Z,37.6
2019-05-13T13:11:42.057Z,40.6
2019-05-13T13:12:53.266Z,36.1
2019-05-13T13:15:17.571Z,34.4
2019-05-13T13:16:29.841Z,39.2
2019-05-13T13:17:41.885Z,40.7
2019-05-13T13:18:54.132Z,41.1
2019-05-13T13:20:06.937Z,37.9
2019-05-13T13:21:18.431Z,40.5
2019-05-13T13:22:30.716Z,41.8
2019-05-13T13:23:42.941Z,38.2
2019-05-13T13:24:55.126Z,36.7
2019-05-13T13:26:07.285Z,38.2
2019-05-13T13:27:19.681Z,36.7
2019-05-13T13:28:31.721Z,33.3
2019-05-13T13:29:43.779Z,37.2
2019-05-13T13:30:56.054Z,39.3
2019-05-13T13:32:08.814Z,40.3
2019-05-13T13:33:20.478Z,39.2
2019-05-13T13:34:32.649Z,39.4
2019-05-13T13:35:44.859Z,38.2
2019-05-13T13:36:57.063Z,35.7
2019-05-13T13:38:09.138Z,39.2
2019-05-13T13:39:22.896Z,39
2019-05-13T13:40:35.401Z,39
2019-05-13T13:41:45.787Z,35.9
2019-05-13T13:42:58.020Z,36.6
2019-05-13T13:44:10.413Z,38.8
2019-05-13T13:45:22.409Z,33.8
2019-05-13T13:46:34.581Z,34.6
2019-05-13T13:47:46.866Z,39.8
2019-05-13T13:48:58.961Z,39
2019-05-13T13:50:11.241Z,41.3
2019-05-13T13:51:23.616Z,40.5
2019-05-13T13:52:35.678Z,40.2
2019-05-13T13:53:47.713Z,37.4
2019-05-13T13:54:59.869Z,38
2019-05-13T13:56:12.070Z,39.8
2019-05-13T13:57:24.365Z,37.2
2019-05-13T13:58:36.698Z,32.7
2019-05-13T13:59:48.765Z,34.9
2019-05-13T14:01:00.926Z,37.5
2019-05-13T14:02:13.087Z,39.6
2019-05-13T14:03:25.311Z,37
2019-05-13T14:04:37.665Z,37.9
2019-05-13T14:05:50.901Z,36.4
2019-05-13T14:07:01.930Z,33.3
2019-05-13T14:08:14.069Z,31.5
2019-05-13T14:09:26.261Z,39.3
2019-05-13T14:10:38.543Z,39
2019-05-13T14:11:52.592Z,38.9
2019-05-13T14:13:02.808Z,34.6
2019-05-13T14:14:15.136Z,35.4
2019-05-13T14:15:27.392Z,37.5
2019-05-13T14:16:39.413Z,35.7
2019-05-13T14:17:51.604Z,30.2
2019-05-13T14:19:03.812Z,34.9
2019-05-13T14:20:16.023Z,34.9
2019-05-13T14:21:28.236Z,33.6
2019-05-13T14:22:40.426Z,31.5
2019-05-13T14:23:52.605Z,32.8
2019-05-13T14:25:04.918Z,37.5
2019-05-13T14:26:16.882Z,35.3
2019-05-13T14:27:29.334Z,37.6
2019-05-13T14:28:41.382Z,38.1
2019-05-13T14:29:54.531Z,35.5
2019-05-13T14:31:05.758Z,35.9
2019-05-13T14:32:17.842Z,33.4
2019-05-13T14:33:30.103Z,36
2019-05-13T14:34:42.342Z,33.3
2019-05-13T14:35:54.983Z,32.8
2019-05-13T14:37:06.897Z,35.4
2019-05-13T14:38:18.983Z,37.1
2019-05-13T14:39:31.184Z,33.3
2019-05-13T14:40:44.544Z,32.7
2019-05-13T14:41:55.401Z,39.1
2019-05-13T14:43:07.961Z,32.3
2019-05-13T14:44:22.034Z,37.3
2019-05-13T14:45:32.081Z,34.9
2019-05-13T14:46:44.457Z,32.7
2019-05-13T14:47:56.391Z,35.7
2019-05-13T14:49:08.714Z,34.4
2019-05-13T14:50:20.901Z,39
2019-05-13T14:51:33.047Z,37.3
2019-05-13T14:52:45.264Z,32.8
2019-05-13T14:53:57.349Z,33.4
2019-05-13T14:55:09.544Z,36.6
2019-05-13T14:56:21.834Z,35.1
2019-05-13T14:57:35.350Z,37.7
2019-05-13T14:58:49.478Z,34.4
2019-05-13T14:59:58.437Z,38.8
2019-05-13T15:01:10.627Z,38.7
2019-05-13T15:02:23.151Z,34
2019-05-13T15:03:34.968Z,34.5
2019-05-13T15:04:47.109Z,36
2019-05-13T15:05:59.347Z,39.1
2019-05-13T15:07:11.709Z,39
2019-05-13T15:08:23.695Z,40.2
2019-05-13T15:09:36.439Z,38.6
2019-05-13T15:10:48.242Z,37.5
2019-05-13T15:12:00.437Z,37.6
2019-05-13T15:13:12.580Z,36.5
2019-05-13T15:14:24.829Z,38.1
2019-05-13T15:15:36.973Z,34.7
2019-05-13T15:16:49.143Z,35.7
2019-05-13T15:18:01.285Z,34.3
2019-05-13T15:19:13.536Z,35.9
2019-05-13T15:20:25.711Z,34.1
2019-05-13T15:21:38.219Z,34.6
2019-05-13T15:22:52.050Z,34.8
2019-05-13T15:24:02.250Z,35.9
2019-05-13T15:25:14.416Z,34.1
2019-05-13T15:26:26.710Z,35.6
2019-05-13T15:27:38.817Z,34
2019-05-13T15:28:51.137Z,37
2019-05-13T15:30:03.573Z,36.2
2019-05-13T15:31:15.387Z,33.7
2019-05-13T15:32:27.680Z,33.1
2019-05-13T15:33:39.817Z,32.7
2019-05-13T15:34:52.069Z,32.2
2019-05-13T15:36:06.282Z,38.3
2019-05-13T15:37:16.447Z,35.6
2019-05-13T15:38:28.606Z,32.6
2019-05-13T15:39:40.839Z,31.4
2019-05-13T15:40:53.065Z,38.1
2019-05-13T15:42:05.151Z,35.5
2019-05-13T15:43:17.447Z,36.5
2019-05-13T15:44:29.533Z,34.7
2019-05-13T15:45:41.759Z,36.2
2019-05-13T15:46:54.162Z,35.4
2019-05-13T15:48:06.285Z,33.5
2019-05-13T15:49:18.835Z,37.9
2019-05-13T15:50:30.625Z,37.8
2019-05-13T15:51:42.738Z,35.9
2019-05-13T15:52:54.990Z,37.2
2019-05-13T15:54:07.130Z,36
2019-05-13T15:55:19.309Z,34.7
2019-05-13T15:56:31.495Z,38
2019-05-13T15:57:43.930Z,37.6
2019-05-13T15:58:55.990Z,37.2
2019-05-13T16:00:08.124Z,37.2
2019-05-13T16:01:20.364Z,36.6
2019-05-13T16:02:32.580Z,31.7
2019-05-13T16:03:44.654Z,32.9
2019-05-13T16:04:56.957Z,35.6
2019-05-13T16:06:09.058Z,34.6
2019-05-13T16:07:21.235Z,37.4
2019-05-13T16:08:33.544Z,37.7
2019-05-13T16:09:49.197Z,37.5
2019-05-13T16:10:57.935Z,37.7
2019-05-13T16:12:10.117Z,37.4
2019-05-13T16:13:22.224Z,33.5
2019-05-13T16:14:34.455Z,35.5
2019-05-13T16:15:46.628Z,39.1
2019-05-13T16:16:59.035Z,36.8
2019-05-13T16:18:11.036Z,36.7
2019-05-13T16:19:23.204Z,37.5
2019-05-13T16:20:35.406Z,33.4
2019-05-13T16:21:47.596Z,36.8
2019-05-13T16:22:59.862Z,38.4
2019-05-13T16:24:12.447Z,37.1
2019-05-13T16:25:24.265Z,36.2
2019-05-13T16:26:36.619Z,36.6
2019-05-13T16:27:48.655Z,39.4
2019-05-13T16:29:00.775Z,37
2019-05-13T16:30:13.079Z,37.6
2019-05-13T16:31:25.149Z,32.7
2019-05-13T16:32:37.346Z,35.9
2019-05-13T16:33:49.625Z,37.4
2019-05-13T16:35:01.850Z,35.5
2019-05-13T16:36:13.944Z,38.6
2019-05-13T16:37:26.113Z,33.6
2019-05-13T16:38:38.649Z,37.3
2019-05-13T16:39:51.066Z,35.5
2019-05-13T16:41:02.744Z,36.2
2019-05-13T16:42:20.056Z,37.5
2019-05-13T16:43:27.149Z,36.2
2019-05-13T16:44:39.377Z,36
2019-05-13T16:45:51.559Z,35.3
2019-05-13T16:47:06.624Z,36.3
2019-05-13T16:48:15.986Z,39.6
2019-05-13T16:49:28.138Z,38.4
2019-05-13T16:50:42.202Z,38.5
2019-05-13T16:51:52.768Z,38.8
2019-05-13T16:53:04.948Z,37.5
2019-05-13T16:54:16.877Z,37.9
2019-05-13T16:55:29.070Z,38
2019-05-13T16:56:41.271Z,35.6
2019-05-13T16:57:53.709Z,38
2019-05-13T16:59:05.893Z,39.5
2019-05-13T17:00:17.838Z,37.6
2019-05-13T17:01:30.086Z,37.9
2019-05-13T17:02:42.370Z,33.2
2019-05-13T17:03:56.872Z,37.1
2019-05-13T17:05:06.708Z,38.2
2019-05-13T17:06:21.620Z,39.3
2019-05-13T17:07:30.984Z,37.4
2019-05-13T17:08:43.591Z,38.2
2019-05-13T17:09:59.851Z,37.4
2019-05-13T17:11:07.901Z,37.9
2019-05-13T17:12:19.777Z,37.4
2019-05-13T17:13:32.194Z,37.6
2019-05-13T17:14:44.163Z,33.3
2019-05-13T17:15:56.495Z,35.7
2019-05-13T17:17:08.726Z,37.8
2019-05-13T17:18:20.772Z,35.5
2019-05-13T17:19:32.959Z,33.2
2019-05-13T17:20:45.172Z,34
2019-05-13T17:21:57.487Z,36.8
2019-05-13T17:23:09.685Z,39.4
2019-05-13T17:24:21.782Z,37.4
2019-05-13T17:25:34.030Z,36.3
2019-05-13T17:26:47.097Z,37.4
2019-05-13T17:27:58.417Z,34.6
2019-05-13T17:29:10.765Z,32.7
2019-05-13T17:30:22.927Z,33
2019-05-13T17:31:34.890Z,37
2019-05-13T17:32:47.079Z,38.7
2019-05-13T17:33:59.397Z,37.5
2019-05-13T17:35:11.628Z,37.8
2019-05-13T17:36:23.746Z,37.6
2019-05-13T17:37:35.907Z,36.6
2019-05-13T17:38:48.097Z,33.2
2019-05-13T17:40:00.394Z,33
2019-05-13T17:41:12.467Z,36.6
2019-05-13T17:42:25.153Z,34.8
2019-05-13T17:43:36.852Z,34.6
2019-05-13T17:44:49.173Z,38.2
2019-05-13T17:46:01.264Z,38.6
2019-05-13T17:47:13.530Z,35.2
2019-05-13T17:48:25.767Z,35.4
2019-05-13T17:49:38.035Z,35.9
2019-05-13T17:50:50.018Z,36.4
2019-05-13T17:52:02.297Z,39.9
2019-05-13T17:53:14.453Z,37.9
2019-05-13T17:54:26.609Z,34.7
2019-05-13T17:55:38.880Z,34.8
2019-05-13T17:56:50.991Z,37.9
2019-05-13T17:58:03.311Z,36.2
2019-05-13T17:59:15.480Z,36
2019-05-13T18:00:27.777Z,37
2019-05-13T18:01:39.831Z,38.4
2019-05-13T18:02:52.970Z,37
2019-05-13T18:04:04.178Z,38
2019-05-13T18:05:16.379Z,37.9
2019-05-13T18:06:29.942Z,36.2
2019-05-13T18:07:40.748Z,38.5
2019-05-13T18:08:52.940Z,37.9
2019-05-13T18:10:05.285Z,39
2019-05-13T18:11:17.426Z,37.5
2019-05-13T18:12:29.530Z,36.5
2019-05-13T18:13:41.810Z,36.9
2019-05-13T18:14:54.066Z,38.1
2019-05-13T18:16:06.117Z,38.6
2019-05-13T18:18:33.274Z,36.5
2019-05-13T18:19:42.785Z,39
2019-05-13T18:20:54.904Z,38.4
2019-05-13T18:22:11.969Z,37.2
2019-05-13T18:23:24.381Z,37.7
2019-05-13T18:24:31.505Z,38
2019-05-13T18:25:43.760Z,35.9
2019-05-13T18:26:55.989Z,36.2
2019-05-13T18:28:08.086Z,35.8
2019-05-13T18:29:20.267Z,36.3
2019-05-13T18:30:32.488Z,39.3
2019-05-13T18:31:44.761Z,35.3
2019-05-13T18:32:56.889Z,37.6
2019-05-13T18:34:09.035Z,38.5
2019-05-13T18:35:21.346Z,34.2
2019-05-13T18:36:33.636Z,34.3
2019-05-13T18:37:45.617Z,34.6
2019-05-13T18:38:57.912Z,38.4
2019-05-13T18:40:12.469Z,34.7
2019-05-13T18:41:22.265Z,38.5
2019-05-13T18:42:34.431Z,37
2019-05-13T18:43:46.620Z,37.8
2019-05-13T18:44:58.800Z,39.5
2019-05-13T18:46:11.022Z,38.2